Aviation Digital Data Service (ADDS)

Output produced by TAFs form (1922 UTC 30 June 2016)
found at http://www.aviationweather.gov/adds/tafs/
 
KABE 301740Z 3018/0118 26005KT P6SM SCT060 
     FM010000 20003KT P6SM SKC 
     FM011100 12003KT 6SM BR BKN030 
     FM011500 17008KT P6SM BKN040